Avon, PA

1:44 AM EDT on September 05, 2015 (GMT -0400)
Lebanon | | Change Station
CLOSE
Current Station
Personal Weather Station
Location: Lebanon, PA
Elevation: 505 ft
Nearby Weather Stations

Elev 505 ft 40.33 °N, 76.44 °W | Updated 3 seconds ago

Mostly Cloudy
Mostly Cloudy
68.2 °F
Feels Like 68.2 °F
N
0.0
Wind Variable Wind from SE
Gusts 0.0 mph

Today
High -- | Low -- °F
--% Chance of Precip.
Yesterday
High -- | Low -- °F
Precip. -- in
6:36 AM 7:31 PM
Waning Gibbous, 52% visible
Pressure 30.20 in
Visibility 10.0 miles
Clouds Mostly Cloudy 8000 ft
Dew Point 65 °F
Humidity 91%
Rainfall 0.00 in
Snow Depth Not available.
UV 0 out of 12
Pollen 7.80 out of 12
Air Quality Not available.
Flu Activity Not available.
METAR KMUI 050458Z AUTO 08002KT 10SM BKN080 22/19 A3020 RMK AO2 SLP226 T02160192 403170197
Pressure 30.20 in
Visibility 10.0 miles
Clouds Mostly Cloudy 8000 ft
Dew Point 65 °F
Humidity 91%
Rainfall 0.00 in
Snow Depth Not available.
UV 0 out of 12
Pollen 7.80 out of 12
Air Quality Not available.
Flu Activity Not available.
METAR KMUI 050458Z AUTO 08002KT 10SM BKN080 22/19 A3020 RMK AO2 SLP226 T02160192 403170197

10-Day Weather Forecast

×

Almanac

Astronomy

Sep. 05, 2015 Rise Set
Actual Time
Civil Twilight
Nautical Twilight
Astronomical Twilight
Moon
Length of Visible Light
Length of Day
Tomorrow will be .
, % of the Moon is Illuminated

Today's Extremes

State Highs State Lows

Community

WunderPhotos

Upload Photos

1,852,428 photos uploaded!

WunderBlogs® & News

Nearby

Air Quality

  Air Quality AQ Index Pollutant
Not available.

Snow Depth

Station Depth Elevation

Earthquake Activity

City Distance Mag. Time & Date
Minimum magnitude displayed is 2.5.

Coastal Water Temperatures

Place Temperature

Stations

Nearby Weather Stations

Station Location Temp. Windchill Dew Point Humidity Wind Precip. Elev Updated Type